sensor_id;sensor_type;location;lat;lon;timestamp;P1;durP1;ratioP1;P2;durP2;ratioP2
78197;SDS011;67472;51.554;7.812;2023-12-20T00:00:27;28.08;;;18.58;;
78197;SDS011;67472;51.554;7.812;2023-12-20T00:03:14;26.42;;;18.42;;
78197;SDS011;67472;51.554;7.812;2023-12-20T00:06:02;26.83;;;18.17;;
78197;SDS011;67472;51.554;7.812;2023-12-20T00:08:48;28.98;;;18.58;;
78197;SDS011;67472;51.554;7.812;2023-12-20T00:11:35;26.95;;;17.52;;
78197;SDS011;67472;51.554;7.812;2023-12-20T00:14:24;32.53;;;18.75;;
78197;SDS011;67472;51.554;7.812;2023-12-20T00:17:10;28.38;;;17.35;;
78197;SDS011;67472;51.554;7.812;2023-12-20T00:19:57;23.42;;;16.15;;
78197;SDS011;67472;51.554;7.812;2023-12-20T00:22:43;26.52;;;17.63;;
78197;SDS011;67472;51.554;7.812;2023-12-20T00:25:29;30.83;;;19.30;;
78197;SDS011;67472;51.554;7.812;2023-12-20T00:28:16;29.45;;;19.35;;
78197;SDS011;67472;51.554;7.812;2023-12-20T00:31:04;27.88;;;16.90;;
78197;SDS011;67472;51.554;7.812;2023-12-20T00:33:52;27.65;;;17.33;;
78197;SDS011;67472;51.554;7.812;2023-12-20T00:36:39;28.08;;;17.60;;
78197;SDS011;67472;51.554;7.812;2023-12-20T00:39:26;28.55;;;17.38;;
78197;SDS011;67472;51.554;7.812;2023-12-20T00:42:12;28.27;;;17.08;;
78197;SDS011;67472;51.554;7.812;2023-12-20T00:44:59;26.50;;;16.98;;
78197;SDS011;67472;51.554;7.812;2023-12-20T00:47:47;26.42;;;16.20;;
78197;SDS011;67472;51.554;7.812;2023-12-20T00:50:34;22.73;;;15.60;;
78197;SDS011;67472;51.554;7.812;2023-12-20T00:53:21;23.90;;;15.15;;
78197;SDS011;67472;51.554;7.812;2023-12-20T00:56:07;26.98;;;17.08;;
78197;SDS011;67472;51.554;7.812;2023-12-20T00:58:53;26.85;;;16.33;;
78197;SDS011;67472;51.554;7.812;2023-12-20T01:01:39;27.08;;;16.08;;
78197;SDS011;67472;51.554;7.812;2023-12-20T01:04:29;29.90;;;16.27;;
78197;SDS011;67472;51.554;7.812;2023-12-20T01:07:16;28.98;;;16.25;;
78197;SDS011;67472;51.554;7.812;2023-12-20T01:10:02;24.20;;;14.43;;
78197;SDS011;67472;51.554;7.812;2023-12-20T01:12:49;23.27;;;14.27;;
78197;SDS011;67472;51.554;7.812;2023-12-20T01:15:35;23.20;;;13.77;;
78197;SDS011;67472;51.554;7.812;2023-12-20T01:18:21;25.67;;;14.10;;
78197;SDS011;67472;51.554;7.812;2023-12-20T01:21:10;25.90;;;14.68;;
78197;SDS011;67472;51.554;7.812;2023-12-20T01:23:57;24.55;;;14.20;;
78197;SDS011;67472;51.554;7.812;2023-12-20T01:26:44;23.52;;;13.52;;
78197;SDS011;67472;51.554;7.812;2023-12-20T01:29:30;20.45;;;13.18;;
78197;SDS011;67472;51.554;7.812;2023-12-20T01:32:18;22.20;;;12.40;;
78197;SDS011;67472;51.554;7.812;2023-12-20T01:35:05;19.90;;;11.40;;
78197;SDS011;67472;51.554;7.812;2023-12-20T01:37:53;22.58;;;11.32;;
78197;SDS011;67472;51.554;7.812;2023-12-20T01:40:41;22.55;;;11.27;;
78197;SDS011;67472;51.554;7.812;2023-12-20T01:43:29;21.33;;;10.13;;
78197;SDS011;67472;51.554;7.812;2023-12-20T01:46:15;17.42;;;9.00;;
78197;SDS011;67472;51.554;7.812;2023-12-20T01:49:04;18.23;;;9.52;;
78197;SDS011;67472;51.554;7.812;2023-12-20T01:51:53;15.82;;;8.52;;
78197;SDS011;67472;51.554;7.812;2023-12-20T01:54:42;21.40;;;9.25;;
78197;SDS011;67472;51.554;7.812;2023-12-20T01:57:30;13.43;;;7.90;;
78197;SDS011;67472;51.554;7.812;2023-12-20T02:00:16;13.93;;;7.68;;
78197;SDS011;67472;51.554;7.812;2023-12-20T02:03:07;15.90;;;6.97;;
78197;SDS011;67472;51.554;7.812;2023-12-20T02:05:54;13.23;;;6.63;;
78197;SDS011;67472;51.554;7.812;2023-12-20T02:08:40;14.43;;;5.68;;
78197;SDS011;67472;51.554;7.812;2023-12-20T02:11:28;13.57;;;5.93;;
78197;SDS011;67472;51.554;7.812;2023-12-20T02:14:15;16.83;;;4.78;;
78197;SDS011;67472;51.554;7.812;2023-12-20T02:17:04;12.75;;;4.78;;
78197;SDS011;67472;51.554;7.812;2023-12-20T02:19:54;13.18;;;4.88;;
78197;SDS011;67472;51.554;7.812;2023-12-20T02:22:42;10.68;;;4.78;;
78197;SDS011;67472;51.554;7.812;2023-12-20T02:25:29;8.80;;;3.85;;
78197;SDS011;67472;51.554;7.812;2023-12-20T02:28:15;12.20;;;4.28;;
78197;SDS011;67472;51.554;7.812;2023-12-20T02:31:02;12.18;;;4.00;;
78197;SDS011;67472;51.554;7.812;2023-12-20T02:33:50;14.02;;;3.92;;
78197;SDS011;67472;51.554;7.812;2023-12-20T02:36:36;7.68;;;3.85;;
78197;SDS011;67472;51.554;7.812;2023-12-20T02:39:26;8.25;;;3.33;;
78197;SDS011;67472;51.554;7.812;2023-12-20T02:42:13;18.27;;;3.65;;
78197;SDS011;67472;51.554;7.812;2023-12-20T02:44:59;13.00;;;3.90;;
78197;SDS011;67472;51.554;7.812;2023-12-20T02:47:46;8.70;;;3.45;;
78197;SDS011;67472;51.554;7.812;2023-12-20T02:50:34;9.05;;;3.90;;
78197;SDS011;67472;51.554;7.812;2023-12-20T02:53:21;13.20;;;4.53;;
78197;SDS011;67472;51.554;7.812;2023-12-20T02:56:09;12.35;;;3.78;;
78197;SDS011;67472;51.554;7.812;2023-12-20T02:58:56;7.50;;;4.30;;
78197;SDS011;67472;51.554;7.812;2023-12-20T03:01:44;10.60;;;5.75;;
78197;SDS011;67472;51.554;7.812;2023-12-20T03:04:31;15.13;;;5.38;;
78197;SDS011;67472;51.554;7.812;2023-12-20T03:07:18;15.70;;;5.15;;
78197;SDS011;67472;51.554;7.812;2023-12-20T03:10:05;13.45;;;5.72;;
78197;SDS011;67472;51.554;7.812;2023-12-20T03:12:53;14.32;;;6.10;;
78197;SDS011;67472;51.554;7.812;2023-12-20T03:15:39;12.13;;;4.70;;
78197;SDS011;67472;51.554;7.812;2023-12-20T03:18:26;9.65;;;5.35;;
78197;SDS011;67472;51.554;7.812;2023-12-20T03:21:13;14.20;;;5.05;;
78197;SDS011;67472;51.554;7.812;2023-12-20T03:24:00;13.77;;;5.35;;
78197;SDS011;67472;51.554;7.812;2023-12-20T03:26:46;18.50;;;5.75;;
78197;SDS011;67472;51.554;7.812;2023-12-20T03:29:33;10.27;;;5.55;;
78197;SDS011;67472;51.554;7.812;2023-12-20T03:32:20;14.55;;;5.88;;
78197;SDS011;67472;51.554;7.812;2023-12-20T03:35:09;11.95;;;5.32;;
78197;SDS011;67472;51.554;7.812;2023-12-20T03:37:55;11.65;;;6.38;;
78197;SDS011;67472;51.554;7.812;2023-12-20T03:40:44;13.35;;;5.40;;
78197;SDS011;67472;51.554;7.812;2023-12-20T03:43:31;12.75;;;6.07;;
78197;SDS011;67472;51.554;7.812;2023-12-20T03:46:19;12.30;;;4.85;;
78197;SDS011;67472;51.554;7.812;2023-12-20T03:49:05;16.85;;;5.43;;
78197;SDS011;67472;51.554;7.812;2023-12-20T03:51:51;16.17;;;5.15;;
78197;SDS011;67472;51.554;7.812;2023-12-20T03:54:37;14.48;;;5.32;;
78197;SDS011;67472;51.554;7.812;2023-12-20T03:57:24;16.13;;;4.70;;
78197;SDS011;67472;51.554;7.812;2023-12-20T04:00:10;10.75;;;4.60;;
78197;SDS011;67472;51.554;7.812;2023-12-20T04:02:59;15.75;;;5.88;;
78197;SDS011;67472;51.554;7.812;2023-12-20T04:05:45;11.77;;;6.18;;
78197;SDS011;67472;51.554;7.812;2023-12-20T04:08:31;9.70;;;5.03;;
78197;SDS011;67472;51.554;7.812;2023-12-20T04:11:17;13.98;;;5.30;;
78197;SDS011;67472;51.554;7.812;2023-12-20T04:14:03;18.20;;;4.97;;
78197;SDS011;67472;51.554;7.812;2023-12-20T04:16:50;13.00;;;4.88;;
78197;SDS011;67472;51.554;7.812;2023-12-20T04:19:38;14.48;;;5.40;;
78197;SDS011;67472;51.554;7.812;2023-12-20T04:22:25;20.88;;;6.55;;
78197;SDS011;67472;51.554;7.812;2023-12-20T04:25:11;24.63;;;6.65;;
78197;SDS011;67472;51.554;7.812;2023-12-20T04:27:57;16.92;;;6.50;;
78197;SDS011;67472;51.554;7.812;2023-12-20T04:30:44;13.90;;;6.70;;
78197;SDS011;67472;51.554;7.812;2023-12-20T04:33:31;15.95;;;6.53;;
78197;SDS011;67472;51.554;7.812;2023-12-20T04:36:19;18.13;;;7.15;;
78197;SDS011;67472;51.554;7.812;2023-12-20T04:39:08;14.85;;;6.47;;
78197;SDS011;67472;51.554;7.812;2023-12-20T04:41:54;16.65;;;7.05;;
78197;SDS011;67472;51.554;7.812;2023-12-20T04:44:41;22.60;;;7.85;;
78197;SDS011;67472;51.554;7.812;2023-12-20T04:47:28;19.73;;;7.00;;
78197;SDS011;67472;51.554;7.812;2023-12-20T04:50:15;15.68;;;7.47;;
78197;SDS011;67472;51.554;7.812;2023-12-20T04:53:03;16.98;;;7.88;;
78197;SDS011;67472;51.554;7.812;2023-12-20T04:55:51;19.50;;;7.90;;
78197;SDS011;67472;51.554;7.812;2023-12-20T04:58:38;25.27;;;8.00;;
78197;SDS011;67472;51.554;7.812;2023-12-20T05:01:24;20.73;;;7.82;;
78197;SDS011;67472;51.554;7.812;2023-12-20T05:04:10;16.00;;;7.65;;
78197;SDS011;67472;51.554;7.812;2023-12-20T05:06:59;20.20;;;8.00;;
78197;SDS011;67472;51.554;7.812;2023-12-20T05:09:47;14.40;;;7.03;;
78197;SDS011;67472;51.554;7.812;2023-12-20T05:12:33;22.75;;;8.65;;
78197;SDS011;67472;51.554;7.812;2023-12-20T05:15:20;19.83;;;8.05;;
78197;SDS011;67472;51.554;7.812;2023-12-20T05:18:09;20.88;;;8.68;;
78197;SDS011;67472;51.554;7.812;2023-12-20T05:20:55;24.00;;;8.30;;
78197;SDS011;67472;51.554;7.812;2023-12-20T05:23:42;27.10;;;11.43;;
78197;SDS011;67472;51.554;7.812;2023-12-20T05:26:31;19.23;;;8.35;;
78197;SDS011;67472;51.554;7.812;2023-12-20T05:29:18;25.00;;;9.15;;
78197;SDS011;67472;51.554;7.812;2023-12-20T05:32:04;20.98;;;9.00;;
78197;SDS011;67472;51.554;7.812;2023-12-20T05:34:51;23.45;;;9.00;;
78197;SDS011;67472;51.554;7.812;2023-12-20T05:37:37;19.00;;;10.65;;
78197;SDS011;67472;51.554;7.812;2023-12-20T05:40:25;18.63;;;8.38;;
78197;SDS011;67472;51.554;7.812;2023-12-20T05:43:13;21.63;;;8.00;;
78197;SDS011;67472;51.554;7.812;2023-12-20T05:45:59;24.20;;;8.98;;
78197;SDS011;67472;51.554;7.812;2023-12-20T05:48:45;30.13;;;8.82;;
78197;SDS011;67472;51.554;7.812;2023-12-20T05:51:31;18.65;;;9.40;;
78197;SDS011;67472;51.554;7.812;2023-12-20T05:54:18;23.35;;;9.75;;
78197;SDS011;67472;51.554;7.812;2023-12-20T05:57:04;19.92;;;9.77;;
78197;SDS011;67472;51.554;7.812;2023-12-20T05:59:52;26.35;;;9.35;;
78197;SDS011;67472;51.554;7.812;2023-12-20T06:02:39;24.70;;;8.80;;
78197;SDS011;67472;51.554;7.812;2023-12-20T06:05:26;24.30;;;8.15;;
78197;SDS011;67472;51.554;7.812;2023-12-20T06:08:12;18.13;;;8.85;;
78197;SDS011;67472;51.554;7.812;2023-12-20T06:10:58;30.30;;;9.60;;
78197;SDS011;67472;51.554;7.812;2023-12-20T06:13:45;24.55;;;8.40;;
78197;SDS011;67472;51.554;7.812;2023-12-20T06:16:32;23.38;;;8.88;;
78197;SDS011;67472;51.554;7.812;2023-12-20T06:19:18;19.50;;;8.65;;
78197;SDS011;67472;51.554;7.812;2023-12-20T06:22:05;26.05;;;10.13;;
78197;SDS011;67472;51.554;7.812;2023-12-20T06:24:52;22.88;;;8.88;;
78197;SDS011;67472;51.554;7.812;2023-12-20T06:27:41;23.10;;;8.40;;
78197;SDS011;67472;51.554;7.812;2023-12-20T06:30:27;23.52;;;7.95;;
78197;SDS011;67472;51.554;7.812;2023-12-20T06:33:14;17.08;;;7.65;;
78197;SDS011;67472;51.554;7.812;2023-12-20T06:36:01;21.77;;;9.88;;
78197;SDS011;67472;51.554;7.812;2023-12-20T06:38:49;24.23;;;8.30;;
78197;SDS011;67472;51.554;7.812;2023-12-20T06:41:36;28.13;;;8.93;;
78197;SDS011;67472;51.554;7.812;2023-12-20T06:44:22;23.75;;;9.32;;
78197;SDS011;67472;51.554;7.812;2023-12-20T06:47:09;14.48;;;7.63;;
78197;SDS011;67472;51.554;7.812;2023-12-20T06:49:57;20.85;;;8.07;;
78197;SDS011;67472;51.554;7.812;2023-12-20T06:52:44;22.98;;;6.95;;
78197;SDS011;67472;51.554;7.812;2023-12-20T06:55:30;23.25;;;7.78;;
78197;SDS011;67472;51.554;7.812;2023-12-20T06:58:17;18.60;;;7.72;;
78197;SDS011;67472;51.554;7.812;2023-12-20T07:01:03;24.42;;;9.23;;
78197;SDS011;67472;51.554;7.812;2023-12-20T07:03:49;22.67;;;8.60;;
78197;SDS011;67472;51.554;7.812;2023-12-20T07:06:37;17.20;;;7.88;;
78197;SDS011;67472;51.554;7.812;2023-12-20T07:09:23;23.58;;;9.77;;
78197;SDS011;67472;51.554;7.812;2023-12-20T07:12:10;22.42;;;9.05;;
78197;SDS011;67472;51.554;7.812;2023-12-20T07:14:56;25.10;;;10.20;;
78197;SDS011;67472;51.554;7.812;2023-12-20T07:17:42;20.05;;;9.13;;
78197;SDS011;67472;51.554;7.812;2023-12-20T07:20:29;25.75;;;9.88;;
78197;SDS011;67472;51.554;7.812;2023-12-20T07:23:17;16.50;;;8.90;;
78197;SDS011;67472;51.554;7.812;2023-12-20T07:26:04;26.58;;;9.40;;
78197;SDS011;67472;51.554;7.812;2023-12-20T07:28:50;27.83;;;8.48;;
78197;SDS011;67472;51.554;7.812;2023-12-20T07:31:37;23.98;;;8.93;;
78197;SDS011;67472;51.554;7.812;2023-12-20T07:34:23;17.77;;;8.05;;
78197;SDS011;67472;51.554;7.812;2023-12-20T07:37:10;23.23;;;8.13;;
78197;SDS011;67472;51.554;7.812;2023-12-20T07:39:58;18.98;;;7.93;;
78197;SDS011;67472;51.554;7.812;2023-12-20T07:42:45;22.80;;;9.00;;
78197;SDS011;67472;51.554;7.812;2023-12-20T07:45:32;23.10;;;7.95;;
78197;SDS011;67472;51.554;7.812;2023-12-20T07:48:22;22.88;;;8.85;;
78197;SDS011;67472;51.554;7.812;2023-12-20T07:51:10;25.40;;;7.93;;
78197;SDS011;67472;51.554;7.812;2023-12-20T07:53:56;18.58;;;7.45;;
78197;SDS011;67472;51.554;7.812;2023-12-20T07:56:45;18.58;;;8.10;;
78197;SDS011;67472;51.554;7.812;2023-12-20T07:59:33;22.88;;;8.27;;
78197;SDS011;67472;51.554;7.812;2023-12-20T08:02:20;14.98;;;7.40;;
78197;SDS011;67472;51.554;7.812;2023-12-20T08:05:06;25.58;;;8.00;;
78197;SDS011;67472;51.554;7.812;2023-12-20T08:07:53;19.27;;;7.43;;
78197;SDS011;67472;51.554;7.812;2023-12-20T08:10:43;18.33;;;6.82;;
78197;SDS011;67472;51.554;7.812;2023-12-20T08:13:33;18.80;;;7.63;;
78197;SDS011;67472;51.554;7.812;2023-12-20T08:16:20;25.45;;;6.97;;
78197;SDS011;67472;51.554;7.812;2023-12-20T08:19:09;25.33;;;7.43;;
78197;SDS011;67472;51.554;7.812;2023-12-20T08:21:55;24.63;;;8.00;;
78197;SDS011;67472;51.554;7.812;2023-12-20T08:24:41;20.67;;;7.38;;
78197;SDS011;67472;51.554;7.812;2023-12-20T08:27:27;17.80;;;7.57;;
78197;SDS011;67472;51.554;7.812;2023-12-20T08:30:17;21.05;;;7.50;;
78197;SDS011;67472;51.554;7.812;2023-12-20T08:33:06;30.27;;;7.40;;
78197;SDS011;67472;51.554;7.812;2023-12-20T08:35:56;21.63;;;7.72;;
78197;SDS011;67472;51.554;7.812;2023-12-20T08:38:44;18.35;;;7.40;;
78197;SDS011;67472;51.554;7.812;2023-12-20T08:41:31;22.13;;;7.25;;
78197;SDS011;67472;51.554;7.812;2023-12-20T08:44:18;18.55;;;7.00;;
78197;SDS011;67472;51.554;7.812;2023-12-20T08:47:05;17.83;;;7.03;;
78197;SDS011;67472;51.554;7.812;2023-12-20T08:49:58;19.20;;;7.90;;
78197;SDS011;67472;51.554;7.812;2023-12-20T08:52:46;21.33;;;7.30;;
78197;SDS011;67472;51.554;7.812;2023-12-20T08:55:32;20.10;;;7.05;;
78197;SDS011;67472;51.554;7.812;2023-12-20T08:58:21;19.25;;;8.05;;
78197;SDS011;67472;51.554;7.812;2023-12-20T09:01:07;18.83;;;7.55;;
78197;SDS011;67472;51.554;7.812;2023-12-20T09:03:55;20.83;;;8.57;;
78197;SDS011;67472;51.554;7.812;2023-12-20T09:06:41;17.90;;;6.97;;
78197;SDS011;67472;51.554;7.812;2023-12-20T09:09:28;15.98;;;7.05;;
78197;SDS011;67472;51.554;7.812;2023-12-20T09:12:17;20.58;;;7.18;;
78197;SDS011;67472;51.554;7.812;2023-12-20T09:15:07;19.42;;;7.03;;
78197;SDS011;67472;51.554;7.812;2023-12-20T09:17:54;16.85;;;7.10;;
78197;SDS011;67472;51.554;7.812;2023-12-20T09:20:41;21.48;;;7.57;;
78197;SDS011;67472;51.554;7.812;2023-12-20T09:23:27;20.63;;;7.70;;
78197;SDS011;67472;51.554;7.812;2023-12-20T09:26:14;24.73;;;7.10;;
78197;SDS011;67472;51.554;7.812;2023-12-20T09:29:02;20.08;;;7.38;;
78197;SDS011;67472;51.554;7.812;2023-12-20T09:31:49;21.10;;;6.95;;
78197;SDS011;67472;51.554;7.812;2023-12-20T09:34:38;25.50;;;8.13;;
78197;SDS011;67472;51.554;7.812;2023-12-20T09:37:28;20.33;;;6.55;;
78197;SDS011;67472;51.554;7.812;2023-12-20T09:40:16;17.80;;;6.28;;
78197;SDS011;67472;51.554;7.812;2023-12-20T09:43:07;13.00;;;6.03;;
78197;SDS011;67472;51.554;7.812;2023-12-20T09:45:57;23.48;;;7.45;;
78197;SDS011;67472;51.554;7.812;2023-12-20T09:48:50;12.40;;;5.28;;
78197;SDS011;67472;51.554;7.812;2023-12-20T09:51:37;15.35;;;6.20;;
78197;SDS011;67472;51.554;7.812;2023-12-20T09:54:25;15.57;;;5.45;;
78197;SDS011;67472;51.554;7.812;2023-12-20T09:57:15;19.77;;;6.80;;
78197;SDS011;67472;51.554;7.812;2023-12-20T10:00:02;14.82;;;5.88;;
78197;SDS011;67472;51.554;7.812;2023-12-20T10:02:58;12.00;;;5.75;;
78197;SDS011;67472;51.554;7.812;2023-12-20T10:05:46;12.90;;;5.85;;
78197;SDS011;67472;51.554;7.812;2023-12-20T10:08:37;13.45;;;5.75;;
78197;SDS011;67472;51.554;7.812;2023-12-20T10:11:26;14.43;;;5.72;;
78197;SDS011;67472;51.554;7.812;2023-12-20T10:14:12;21.88;;;5.93;;
78197;SDS011;67472;51.554;7.812;2023-12-20T10:17:01;25.38;;;6.32;;
78197;SDS011;67472;51.554;7.812;2023-12-20T10:19:48;22.80;;;5.53;;
78197;SDS011;67472;51.554;7.812;2023-12-20T10:22:36;14.93;;;5.63;;
78197;SDS011;67472;51.554;7.812;2023-12-20T10:25:23;15.95;;;5.88;;
78197;SDS011;67472;51.554;7.812;2023-12-20T10:28:13;16.10;;;6.13;;
78197;SDS011;67472;51.554;7.812;2023-12-20T10:31:05;15.50;;;5.55;;
78197;SDS011;67472;51.554;7.812;2023-12-20T10:33:53;17.05;;;5.10;;
78197;SDS011;67472;51.554;7.812;2023-12-20T10:36:41;10.15;;;4.45;;
78197;SDS011;67472;51.554;7.812;2023-12-20T10:39:28;21.60;;;5.78;;
78197;SDS011;67472;51.554;7.812;2023-12-20T10:42:14;22.67;;;6.88;;
78197;SDS011;67472;51.554;7.812;2023-12-20T10:45:05;15.65;;;6.00;;
78197;SDS011;67472;51.554;7.812;2023-12-20T10:47:51;20.08;;;5.40;;
78197;SDS011;67472;51.554;7.812;2023-12-20T10:50:38;21.33;;;5.35;;
78197;SDS011;67472;51.554;7.812;2023-12-20T10:53:27;17.83;;;5.93;;
78197;SDS011;67472;51.554;7.812;2023-12-20T10:56:15;16.05;;;5.68;;
78197;SDS011;67472;51.554;7.812;2023-12-20T10:59:02;16.58;;;6.03;;
78197;SDS011;67472;51.554;7.812;2023-12-20T11:01:52;25.13;;;6.30;;
78197;SDS011;67472;51.554;7.812;2023-12-20T11:04:42;19.45;;;5.82;;
78197;SDS011;67472;51.554;7.812;2023-12-20T11:07:36;14.43;;;5.38;;
78197;SDS011;67472;51.554;7.812;2023-12-20T11:10:29;14.07;;;6.20;;
78197;SDS011;67472;51.554;7.812;2023-12-20T11:13:22;16.05;;;5.40;;
78197;SDS011;67472;51.554;7.812;2023-12-20T11:16:13;17.27;;;6.32;;
78197;SDS011;67472;51.554;7.812;2023-12-20T11:19:05;16.27;;;5.75;;
78197;SDS011;67472;51.554;7.812;2023-12-20T11:21:51;22.45;;;6.97;;
78197;SDS011;67472;51.554;7.812;2023-12-20T11:24:38;16.90;;;7.68;;
78197;SDS011;67472;51.554;7.812;2023-12-20T11:27:31;19.80;;;6.28;;
78197;SDS011;67472;51.554;7.812;2023-12-20T11:30:18;19.42;;;7.13;;
78197;SDS011;67472;51.554;7.812;2023-12-20T11:33:07;22.67;;;6.85;;
78197;SDS011;67472;51.554;7.812;2023-12-20T11:35:56;16.92;;;7.25;;
78197;SDS011;67472;51.554;7.812;2023-12-20T11:38:53;19.98;;;7.13;;
78197;SDS011;67472;51.554;7.812;2023-12-20T11:41:42;18.58;;;7.20;;
78197;SDS011;67472;51.554;7.812;2023-12-20T11:44:30;18.48;;;7.05;;
78197;SDS011;67472;51.554;7.812;2023-12-20T11:47:20;18.08;;;6.40;;
78197;SDS011;67472;51.554;7.812;2023-12-20T11:50:07;21.25;;;6.97;;
78197;SDS011;67472;51.554;7.812;2023-12-20T11:52:56;15.27;;;6.85;;
78197;SDS011;67472;51.554;7.812;2023-12-20T11:55:42;15.77;;;6.32;;
78197;SDS011;67472;51.554;7.812;2023-12-20T11:58:28;17.42;;;6.78;;
78197;SDS011;67472;51.554;7.812;2023-12-20T12:01:15;16.15;;;6.72;;
78197;SDS011;67472;51.554;7.812;2023-12-20T12:04:02;15.88;;;6.28;;
78197;SDS011;67472;51.554;7.812;2023-12-20T12:06:48;15.48;;;6.65;;
78197;SDS011;67472;51.554;7.812;2023-12-20T12:09:37;16.30;;;6.30;;
78197;SDS011;67472;51.554;7.812;2023-12-20T12:12:23;17.17;;;6.90;;
78197;SDS011;67472;51.554;7.812;2023-12-20T12:15:12;12.05;;;6.82;;
78197;SDS011;67472;51.554;7.812;2023-12-20T12:18:00;13.02;;;6.55;;
78197;SDS011;67472;51.554;7.812;2023-12-20T12:20:46;21.85;;;7.05;;
78197;SDS011;67472;51.554;7.812;2023-12-20T12:23:33;13.45;;;6.97;;
78197;SDS011;67472;51.554;7.812;2023-12-20T12:26:26;10.65;;;5.97;;
78197;SDS011;67472;51.554;7.812;2023-12-20T12:29:16;14.85;;;6.82;;
78197;SDS011;67472;51.554;7.812;2023-12-20T12:32:04;16.77;;;6.82;;
78197;SDS011;67472;51.554;7.812;2023-12-20T12:34:53;15.45;;;7.07;;
78197;SDS011;67472;51.554;7.812;2023-12-20T12:37:39;16.15;;;7.65;;
78197;SDS011;67472;51.554;7.812;2023-12-20T12:40:26;19.70;;;7.13;;
78197;SDS011;67472;51.554;7.812;2023-12-20T12:43:14;15.25;;;6.78;;
78197;SDS011;67472;51.554;7.812;2023-12-20T12:46:00;14.15;;;6.95;;
78197;SDS011;67472;51.554;7.812;2023-12-20T12:48:47;17.25;;;7.00;;
78197;SDS011;67472;51.554;7.812;2023-12-20T12:51:36;17.60;;;7.35;;
78197;SDS011;67472;51.554;7.812;2023-12-20T12:54:23;13.15;;;7.90;;
78197;SDS011;67472;51.554;7.812;2023-12-20T12:57:09;17.48;;;6.25;;
78197;SDS011;67472;51.554;7.812;2023-12-20T12:59:57;18.27;;;6.90;;
78197;SDS011;67472;51.554;7.812;2023-12-20T13:02:44;13.63;;;7.53;;
78197;SDS011;67472;51.554;7.812;2023-12-20T13:05:31;18.92;;;7.28;;
78197;SDS011;67472;51.554;7.812;2023-12-20T13:08:17;25.67;;;8.00;;
78197;SDS011;67472;51.554;7.812;2023-12-20T13:11:04;17.30;;;7.93;;
78197;SDS011;67472;51.554;7.812;2023-12-20T13:13:50;17.50;;;7.38;;
78197;SDS011;67472;51.554;7.812;2023-12-20T13:16:38;21.33;;;8.95;;
78197;SDS011;67472;51.554;7.812;2023-12-20T13:19:24;15.30;;;8.27;;
78197;SDS011;67472;51.554;7.812;2023-12-20T13:22:10;11.82;;;7.03;;
78197;SDS011;67472;51.554;7.812;2023-12-20T13:24:58;20.02;;;7.80;;
78197;SDS011;67472;51.554;7.812;2023-12-20T13:27:45;21.15;;;7.78;;
78197;SDS011;67472;51.554;7.812;2023-12-20T13:30:31;20.50;;;7.47;;
78197;SDS011;67472;51.554;7.812;2023-12-20T13:33:21;18.52;;;7.97;;
78197;SDS011;67472;51.554;7.812;2023-12-20T13:36:11;18.67;;;7.63;;
78197;SDS011;67472;51.554;7.812;2023-12-20T13:38:57;14.18;;;8.73;;
78197;SDS011;67472;51.554;7.812;2023-12-20T13:41:44;15.25;;;7.20;;
78197;SDS011;67472;51.554;7.812;2023-12-20T13:44:30;18.02;;;7.32;;
78197;SDS011;67472;51.554;7.812;2023-12-20T13:47:18;15.80;;;7.63;;
78197;SDS011;67472;51.554;7.812;2023-12-20T13:50:08;16.85;;;7.03;;
78197;SDS011;67472;51.554;7.812;2023-12-20T13:52:56;18.77;;;7.03;;
78197;SDS011;67472;51.554;7.812;2023-12-20T13:55:43;21.05;;;8.25;;
78197;SDS011;67472;51.554;7.812;2023-12-20T13:58:30;18.45;;;8.40;;
78197;SDS011;67472;51.554;7.812;2023-12-20T14:04:54;14.30;;;7.40;;
78197;SDS011;67472;51.554;7.812;2023-12-20T14:07:42;19.23;;;8.15;;
78197;SDS011;67472;51.554;7.812;2023-12-20T14:10:29;18.08;;;7.80;;
78197;SDS011;67472;51.554;7.812;2023-12-20T14:13:17;20.13;;;8.20;;
78197;SDS011;67472;51.554;7.812;2023-12-20T14:16:07;19.63;;;8.57;;
78197;SDS011;67472;51.554;7.812;2023-12-20T14:18:55;18.05;;;8.20;;
78197;SDS011;67472;51.554;7.812;2023-12-20T14:21:43;15.13;;;8.93;;
78197;SDS011;67472;51.554;7.812;2023-12-20T14:24:31;14.90;;;8.35;;
78197;SDS011;67472;51.554;7.812;2023-12-20T14:27:30;16.95;;;8.32;;
78197;SDS011;67472;51.554;7.812;2023-12-20T14:30:17;14.48;;;7.10;;
78197;SDS011;67472;51.554;7.812;2023-12-20T14:33:03;14.85;;;6.68;;
78197;SDS011;67472;51.554;7.812;2023-12-20T14:35:51;13.63;;;6.43;;
78197;SDS011;67472;51.554;7.812;2023-12-20T14:38:40;9.05;;;5.53;;
78197;SDS011;67472;51.554;7.812;2023-12-20T14:41:28;9.13;;;5.65;;
78197;SDS011;67472;51.554;7.812;2023-12-20T14:44:14;16.63;;;6.55;;
78197;SDS011;67472;51.554;7.812;2023-12-20T14:47:01;11.80;;;6.00;;
78197;SDS011;67472;51.554;7.812;2023-12-20T14:49:48;15.25;;;6.47;;
78197;SDS011;67472;51.554;7.812;2023-12-20T14:52:35;14.00;;;6.68;;
78197;SDS011;67472;51.554;7.812;2023-12-20T14:55:22;14.65;;;7.10;;
78197;SDS011;67472;51.554;7.812;2023-12-20T14:58:14;15.90;;;7.65;;
78197;SDS011;67472;51.554;7.812;2023-12-20T15:01:01;13.73;;;7.85;;
78197;SDS011;67472;51.554;7.812;2023-12-20T15:03:49;13.00;;;7.30;;
78197;SDS011;67472;51.554;7.812;2023-12-20T15:06:37;11.63;;;7.75;;
78197;SDS011;67472;51.554;7.812;2023-12-20T15:09:25;15.30;;;7.53;;
78197;SDS011;67472;51.554;7.812;2023-12-20T15:12:14;16.00;;;7.60;;
78197;SDS011;67472;51.554;7.812;2023-12-20T15:15:02;23.67;;;8.20;;
78197;SDS011;67472;51.554;7.812;2023-12-20T15:17:49;11.75;;;6.60;;
78197;SDS011;67472;51.554;7.812;2023-12-20T15:20:36;14.93;;;6.30;;
78197;SDS011;67472;51.554;7.812;2023-12-20T15:23:25;16.92;;;6.32;;
78197;SDS011;67472;51.554;7.812;2023-12-20T15:26:13;14.02;;;5.78;;
78197;SDS011;67472;51.554;7.812;2023-12-20T15:28:59;11.35;;;5.78;;
78197;SDS011;67472;51.554;7.812;2023-12-20T15:31:48;13.10;;;6.97;;
78197;SDS011;67472;51.554;7.812;2023-12-20T15:34:36;13.45;;;7.70;;
78197;SDS011;67472;51.554;7.812;2023-12-20T15:37:22;14.48;;;8.07;;
78197;SDS011;67472;51.554;7.812;2023-12-20T15:40:11;14.50;;;8.75;;
78197;SDS011;67472;51.554;7.812;2023-12-20T15:42:58;17.77;;;8.80;;
78197;SDS011;67472;51.554;7.812;2023-12-20T15:45:45;16.95;;;9.15;;
78197;SDS011;67472;51.554;7.812;2023-12-20T15:48:33;24.35;;;10.02;;
78197;SDS011;67472;51.554;7.812;2023-12-20T15:51:20;20.27;;;9.93;;
78197;SDS011;67472;51.554;7.812;2023-12-20T15:54:08;17.65;;;9.25;;
78197;SDS011;67472;51.554;7.812;2023-12-20T15:56:54;19.70;;;9.68;;
78197;SDS011;67472;51.554;7.812;2023-12-20T15:59:42;20.35;;;9.65;;
78197;SDS011;67472;51.554;7.812;2023-12-20T16:02:28;17.73;;;10.68;;
78197;SDS011;67472;51.554;7.812;2023-12-20T16:05:16;21.50;;;10.40;;
78197;SDS011;67472;51.554;7.812;2023-12-20T16:08:06;18.95;;;9.90;;
78197;SDS011;67472;51.554;7.812;2023-12-20T16:10:54;20.02;;;10.52;;
78197;SDS011;67472;51.554;7.812;2023-12-20T16:13:41;19.05;;;10.75;;
78197;SDS011;67472;51.554;7.812;2023-12-20T16:16:27;18.77;;;9.65;;
78197;SDS011;67472;51.554;7.812;2023-12-20T16:19:14;16.90;;;10.63;;
78197;SDS011;67472;51.554;7.812;2023-12-20T16:22:02;17.55;;;10.65;;
78197;SDS011;67472;51.554;7.812;2023-12-20T16:24:48;15.95;;;10.20;;
78197;SDS011;67472;51.554;7.812;2023-12-20T16:27:35;17.17;;;9.63;;
78197;SDS011;67472;51.554;7.812;2023-12-20T16:30:22;19.75;;;10.05;;
78197;SDS011;67472;51.554;7.812;2023-12-20T16:33:08;20.60;;;10.20;;
78197;SDS011;67472;51.554;7.812;2023-12-20T16:35:55;19.08;;;10.52;;